Time;durP1;ratioP1;P1;durP2;ratioP2;P2;SDS_P1;SDS_P2;PMS_P1;PMS_P2;Temp;Humidity;BMP_temperature;BMP_pressure;BME280_temperature;BME280_humidity;BME280_pressure;Samples;Min_cycle;Max_cycle;Signal;HPM_P1;HPM_P2
2024/01/24 00:01:13;;;;;;;8.10;2.92;;;-1.10;99.90;;;;;;5019409;28;20032;-79
2024/01/24 00:03:39;;;;;;;6.90;3.90;;;-0.60;99.90;;;;;;5020181;28;20072;-77
2024/01/24 00:06:06;;;;;;;5.63;2.80;;;-1.00;99.90;;;;;;5018768;28;20022;-80
2024/01/24 00:08:32;;;;;;;4.40;2.13;;;-1.00;99.90;;;;;;5002387;28;20032;-77
2024/01/24 00:10:58;;;;;;;9.70;3.83;;;-1.00;99.90;;;;;;5002392;28;20022;-77
2024/01/24 00:13:24;;;;;;;5.63;2.90;;;-1.10;99.90;;;;;;5018092;28;20508;-78
2024/01/24 00:15:49;;;;;;;5.05;2.30;;;-1.10;99.90;;;;;;5020024;28;20092;-78
2024/01/24 00:18:15;;;;;;;6.35;3.05;;;-1.10;99.90;;;;;;5018906;28;20049;-78
2024/01/24 00:20:41;;;;;;;6.88;2.63;;;-1.00;99.90;;;;;;5017274;28;20029;-77
2024/01/24 00:23:06;;;;;;;5.03;2.22;;;-1.00;99.90;;;;;;5015923;28;20034;-77
2024/01/24 00:25:32;;;;;;;4.72;2.30;;;-1.00;99.90;;;;;;4996242;28;20050;-77
2024/01/24 00:27:58;;;;;;;2.95;2.58;;;-1.00;99.90;;;;;;5013580;28;20739;-77
2024/01/24 00:30:23;;;;;;;4.95;1.90;;;-1.00;99.90;;;;;;5013642;28;20033;-77
2024/01/24 00:32:49;;;;;;;5.95;2.38;;;-0.90;99.90;;;;;;5012506;28;20032;-77
2024/01/24 00:35:15;;;;;;;10.77;2.65;;;-1.00;99.90;;;;;;4996671;28;20121;-77
2024/01/24 00:37:40;;;;;;;2.80;1.80;;;-1.00;99.90;;;;;;5012837;28;20037;-78
2024/01/24 00:40:07;;;;;;;6.75;2.78;;;-1.00;99.90;;;;;;4995790;28;20694;-79
2024/01/24 00:42:33;;;;;;;5.35;2.20;;;-1.00;99.90;;;;;;4999425;28;20400;-78
2024/01/24 00:44:58;;;;;;;4.47;1.65;;;-1.00;99.90;;;;;;5018152;28;20033;-78
2024/01/24 00:47:24;;;;;;;5.97;1.70;;;-0.90;99.90;;;;;;5017536;28;20029;-77
2024/01/24 00:49:50;;;;;;;3.55;1.42;;;-0.90;99.90;;;;;;5018448;28;20018;-77
2024/01/24 00:52:15;;;;;;;3.15;1.75;;;-0.70;99.90;;;;;;5017547;28;20018;-77
2024/01/24 00:54:41;;;;;;;4.55;2.20;;;-0.70;99.90;;;;;;5018780;28;20056;-77
2024/01/24 00:57:07;;;;;;;3.63;1.95;;;-0.70;99.90;;;;;;5002446;28;20485;-77
2024/01/24 00:59:32;;;;;;;2.50;2.03;;;-0.70;99.90;;;;;;5021640;28;20022;-77
2024/01/24 01:01:58;;;;;;;3.40;1.83;;;-0.70;99.90;;;;;;5023862;28;20033;-78
2024/01/24 01:04:24;;;;;;;3.75;1.88;;;-0.70;99.90;;;;;;5005593;28;20025;-78
2024/01/24 01:06:50;;;;;;;5.30;2.30;;;-0.60;99.90;;;;;;5022988;28;20022;-77
2024/01/24 01:09:15;;;;;;;4.72;1.92;;;-0.30;99.90;;;;;;5021836;28;20045;-77
2024/01/24 01:11:41;;;;;;;3.17;1.85;;;0.00;99.90;;;;;;5004753;28;20396;-77
2024/01/24 01:14:07;;;;;;;5.72;2.25;;;-0.50;99.90;;;;;;5022442;28;20081;-76
2024/01/24 01:16:33;;;;;;;2.75;2.55;;;-0.50;99.90;;;;;;5004942;28;20483;-78
2024/01/24 01:18:58;;;;;;;5.80;2.63;;;-0.50;99.90;;;;;;5021883;28;20477;-77
2024/01/24 01:21:24;;;;;;;4.90;1.98;;;0.10;99.90;;;;;;5020273;28;20026;-77
2024/01/24 01:23:50;;;;;;;6.35;2.85;;;-0.50;99.90;;;;;;5021984;28;20034;-78
2024/01/24 01:26:15;;;;;;;6.65;2.40;;;-0.50;99.90;;;;;;5020727;28;20029;-77
2024/01/24 01:28:41;;;;;;;5.68;1.98;;;-0.50;99.90;;;;;;5020808;28;20026;-78
2024/01/24 01:31:07;;;;;;;4.60;2.92;;;-0.10;99.90;;;;;;5022155;28;20080;-78
2024/01/24 01:33:32;;;;;;;6.32;3.13;;;-0.50;99.90;;;;;;5022453;28;20026;-78
2024/01/24 01:35:58;;;;;;;5.80;1.92;;;-0.50;99.90;;;;;;5005841;28;20026;-77
2024/01/24 01:38:23;;;;;;;4.45;2.35;;;0.30;99.90;;;;;;5005439;28;20029;-74
2024/01/24 01:40:49;;;;;;;5.25;2.67;;;-0.40;99.90;;;;;;5004546;28;20033;-77
2024/01/24 01:43:15;;;;;;;4.97;2.20;;;-0.30;99.90;;;;;;5004463;28;20030;-78
2024/01/24 01:45:41;;;;;;;7.70;2.40;;;-0.30;99.90;;;;;;5004597;28;20029;-77
2024/01/24 01:48:10;;;;;;;4.60;3.08;;;-0.10;99.90;;;;;;5022407;28;20400;-77
2024/01/24 01:50:37;;;;;;;4.75;2.45;;;-0.30;99.90;;;;;;5022107;28;20026;-78
2024/01/24 01:53:04;;;;;;;3.53;2.35;;;0.00;99.90;;;;;;5003216;28;20022;-79
2024/01/24 01:55:31;;;;;;;6.78;3.22;;;-0.30;99.90;;;;;;5021656;28;20097;-77
2024/01/24 01:57:58;;;;;;;4.65;3.05;;;-0.30;99.90;;;;;;5021444;28;20026;-79
2024/01/24 02:00:25;;;;;;;4.22;2.53;;;-0.30;99.90;;;;;;5020450;28;20622;-78
2024/01/24 02:02:51;;;;;;;6.32;3.65;;;-0.20;99.90;;;;;;5003954;28;20030;-78
2024/01/24 02:05:17;;;;;;;6.13;3.10;;;-0.20;99.90;;;;;;5004782;28;20116;-77
2024/01/24 02:07:44;;;;;;;8.90;2.90;;;-0.10;99.90;;;;;;5022342;28;20026;-78
2024/01/24 02:10:14;;;;;;;6.75;3.10;;;-0.20;99.90;;;;;;5020446;28;20053;-78
2024/01/24 02:12:43;;;;;;;5.60;3.40;;;-0.10;99.90;;;;;;5020823;28;20021;-77
2024/01/24 02:15:09;;;;;;;6.63;3.40;;;-0.20;99.90;;;;;;5004637;28;20546;-77
2024/01/24 02:17:35;;;;;;;7.30;3.10;;;-0.10;99.90;;;;;;5021728;28;20096;-77
2024/01/24 02:20:02;;;;;;;5.50;3.05;;;-0.20;99.90;;;;;;5004103;28;20068;-78
2024/01/24 02:22:27;;;;;;;6.55;3.38;;;-0.10;99.90;;;;;;5003460;28;20034;-78
2024/01/24 02:24:53;;;;;;;7.13;2.95;;;0.80;99.90;;;;;;5021566;28;20030;-78
2024/01/24 02:27:18;;;;;;;8.13;3.45;;;-0.10;99.90;;;;;;5004124;28;20029;-77
2024/01/24 02:29:44;;;;;;;7.55;3.10;;;0.00;99.90;;;;;;5021203;28;20476;-77
2024/01/24 02:32:10;;;;;;;8.93;3.30;;;-0.10;99.90;;;;;;5003136;28;20036;-80
2024/01/24 02:34:35;;;;;;;6.43;2.55;;;-0.10;99.90;;;;;;5020069;28;20026;-78
2024/01/24 02:37:01;;;;;;;5.38;2.38;;;0.10;99.90;;;;;;5003474;28;20030;-76
2024/01/24 02:39:27;;;;;;;6.00;2.42;;;0.10;99.90;;;;;;5020855;28;20030;-77
2024/01/24 02:41:53;;;;;;;6.47;2.55;;;0.00;99.90;;;;;;5021030;28;20094;-78
2024/01/24 02:44:19;;;;;;;4.70;2.83;;;0.10;99.90;;;;;;5020911;28;20033;-78
2024/01/24 02:46:44;;;;;;;4.57;2.80;;;0.00;99.90;;;;;;5020029;28;20022;-78
2024/01/24 02:49:10;;;;;;;6.30;3.05;;;0.00;99.90;;;;;;5020015;28;20049;-78
2024/01/24 02:51:36;;;;;;;4.38;2.45;;;0.00;99.90;;;;;;5021386;28;20026;-79
2024/01/24 02:54:02;;;;;;;4.97;2.88;;;0.00;99.90;;;;;;5020652;28;20040;-77
2024/01/24 02:56:28;;;;;;;6.53;2.60;;;0.00;99.90;;;;;;5019695;28;20026;-78
2024/01/24 02:58:53;;;;;;;8.10;3.85;;;0.10;99.90;;;;;;5021091;28;20030;-79
2024/01/24 03:01:19;;;;;;;5.10;2.97;;;0.10;99.90;;;;;;5020797;28;20076;-78
2024/01/24 03:03:45;;;;;;;5.82;2.85;;;0.10;99.90;;;;;;5001674;28;20400;-77
2024/01/24 03:06:10;;;;;;;6.55;2.63;;;0.40;99.90;;;;;;5003727;28;20026;-78
2024/01/24 03:08:57;;;;;;;6.00;2.95;;;0.60;99.90;;;;;;5020388;28;20077;-77
2024/01/24 03:11:24;;;;;;;5.63;2.63;;;0.00;99.90;;;;;;5023155;28;20022;-79
2024/01/24 03:13:49;;;;;;;4.60;2.60;;;0.10;99.90;;;;;;5005238;28;20045;-79
2024/01/24 03:16:16;;;;;;;5.13;2.80;;;0.10;99.90;;;;;;5022872;28;20025;-76
2024/01/24 03:18:42;;;;;;;13.77;6.18;;;0.20;99.90;;;;;;5022641;28;20033;-79
2024/01/24 03:21:13;;;;;;;16.80;6.70;;;0.20;99.90;;;;;;5022836;28;20073;-79
2024/01/24 03:23:39;;;;;;;12.13;4.35;;;0.80;99.90;;;;;;5035390;23;20056;-77
2024/01/24 03:26:06;;;;;;;5.07;3.00;;;0.20;99.90;;;;;;4995111;28;20018;-76
2024/01/24 03:28:32;;;;;;;14.60;2.88;;;0.70;99.90;;;;;;4994684;28;20033;-77
2024/01/24 03:30:59;;;;;;;6.85;2.75;;;0.60;99.90;;;;;;5012878;28;20026;-76
2024/01/24 03:33:24;;;;;;;5.50;2.88;;;1.00;99.90;;;;;;5011338;28;20045;-75
2024/01/24 03:35:50;;;;;;;8.50;3.28;;;0.20;99.90;;;;;;5012668;28;20101;-75
2024/01/24 03:38:16;;;;;;;5.75;3.00;;;0.20;99.90;;;;;;5000881;28;20030;-77
2024/01/24 03:40:42;;;;;;;6.85;2.85;;;0.30;99.90;;;;;;5016103;28;20057;-77
2024/01/24 03:43:10;;;;;;;5.45;2.72;;;0.30;99.90;;;;;;4997851;28;20033;-77
2024/01/24 03:45:39;;;;;;;6.15;2.78;;;0.20;99.90;;;;;;4996000;28;20022;-77
2024/01/24 03:48:06;;;;;;;3.53;2.28;;;0.30;99.90;;;;;;4994769;28;20018;-76
2024/01/24 03:50:33;;;;;;;5.43;2.72;;;0.30;99.90;;;;;;5012118;28;20018;-76
2024/01/24 03:53:00;;;;;;;4.70;2.45;;;0.30;99.90;;;;;;5012198;28;20047;-76
2024/01/24 03:55:26;;;;;;;6.85;2.15;;;0.30;99.90;;;;;;4994729;28;20030;-76
2024/01/24 03:57:52;;;;;;;5.00;2.58;;;0.30;99.90;;;;;;4994375;28;20037;-76
2024/01/24 04:00:17;;;;;;;4.85;2.45;;;0.50;99.90;;;;;;4994459;28;20052;-77
2024/01/24 04:02:43;;;;;;;6.53;3.30;;;0.30;99.90;;;;;;5012236;28;20462;-76
2024/01/24 04:05:10;;;;;;;4.95;2.60;;;0.20;99.90;;;;;;4994477;28;20025;-76
2024/01/24 04:07:36;;;;;;;5.13;3.17;;;0.20;99.90;;;;;;4994495;28;20049;-76
2024/01/24 04:10:03;;;;;;;7.68;2.92;;;0.30;99.90;;;;;;5012027;28;20088;-76
2024/01/24 04:12:32;;;;;;;4.13;2.70;;;0.30;99.90;;;;;;4994395;28;20034;-76
2024/01/24 04:14:58;;;;;;;6.15;2.72;;;0.30;99.90;;;;;;4994633;28;20472;-76
2024/01/24 04:17:23;;;;;;;3.40;2.20;;;0.30;99.90;;;;;;4997460;28;20076;-76
2024/01/24 04:19:49;;;;;;;6.18;3.03;;;0.30;99.90;;;;;;4998368;28;20038;-76
2024/01/24 04:22:16;;;;;;;4.18;2.22;;;0.30;99.90;;;;;;5015916;28;20384;-77
2024/01/24 04:24:42;;;;;;;8.35;2.97;;;0.30;99.90;;;;;;4998414;28;20534;-76
2024/01/24 04:27:07;;;;;;;4.85;2.30;;;0.30;99.90;;;;;;4998248;28;20030;-77
2024/01/24 04:29:33;;;;;;;4.85;2.22;;;0.50;99.90;;;;;;5015670;28;20022;-76
2024/01/24 04:31:59;;;;;;;5.88;2.75;;;0.30;99.90;;;;;;5015911;28;20030;-76
2024/01/24 04:34:24;;;;;;;6.57;2.85;;;0.80;99.90;;;;;;5015686;28;20026;-76
2024/01/24 04:36:50;;;;;;;3.17;2.40;;;0.80;99.90;;;;;;5016059;28;20153;-76
2024/01/24 04:39:16;;;;;;;4.28;2.33;;;0.30;99.90;;;;;;4998175;28;20022;-76
2024/01/24 04:41:43;;;;;;;5.68;3.03;;;0.50;99.90;;;;;;5015714;28;20029;-75
2024/01/24 04:44:09;;;;;;;3.95;2.60;;;0.30;99.90;;;;;;4997613;28;20496;-76
2024/01/24 04:46:35;;;;;;;6.00;3.13;;;0.70;99.90;;;;;;5015281;28;20022;-76
2024/01/24 04:49:00;;;;;;;4.90;3.10;;;0.30;99.90;;;;;;4998274;28;20084;-76
2024/01/24 04:51:28;;;;;;;3.70;2.17;;;0.30;99.90;;;;;;4998289;28;20022;-77
2024/01/24 04:53:53;;;;;;;6.07;2.90;;;0.40;99.90;;;;;;5016609;28;20052;-76
2024/01/24 04:56:19;;;;;;;3.65;2.40;;;1.00;99.90;;;;;;4997764;28;20057;-75
2024/01/24 04:58:45;;;;;;;7.07;2.70;;;0.40;99.90;;;;;;5015077;28;20440;-75
2024/01/24 05:01:13;;;;;;;7.22;2.13;;;0.90;99.90;;;;;;5015360;28;20033;-75
2024/01/24 05:03:39;;;;;;;5.85;2.85;;;0.80;99.90;;;;;;4997700;28;20415;-76
2024/01/24 05:06:05;;;;;;;6.35;2.58;;;1.00;99.90;;;;;;5015353;28;20109;-76
2024/01/24 05:08:31;;;;;;;5.45;2.38;;;0.80;99.90;;;;;;5014948;28;20022;-76
2024/01/24 05:10:57;;;;;;;4.93;2.83;;;0.70;99.90;;;;;;4997496;28;20129;-75
2024/01/24 05:13:22;;;;;;;5.60;3.28;;;0.80;99.90;;;;;;4997549;28;20022;-75
2024/01/24 05:15:49;;;;;;;8.57;3.97;;;0.60;99.90;;;;;;4997447;28;20073;-75
2024/01/24 05:18:15;;;;;;;10.43;4.10;;;0.60;99.90;;;;;;4997423;28;20025;-75
2024/01/24 05:20:41;;;;;;;7.22;3.35;;;0.70;99.90;;;;;;4996821;28;20014;-76
2024/01/24 05:23:07;;;;;;;12.15;4.00;;;1.40;99.90;;;;;;5014692;28;20045;-75
2024/01/24 05:25:33;;;;;;;6.47;3.55;;;0.60;99.90;;;;;;4998420;28;20090;-76
2024/01/24 05:28:00;;;;;;;8.00;3.03;;;0.70;99.90;;;;;;5014871;28;20042;-76
2024/01/24 05:30:25;;;;;;;13.23;4.45;;;0.90;99.90;;;;;;5014628;28;20030;-76
2024/01/24 05:32:55;;;;;;;13.02;4.22;;;1.00;99.90;;;;;;5014764;28;20018;-75
2024/01/24 05:35:21;;;;;;;7.90;3.22;;;0.60;99.90;;;;;;5014765;28;20030;-76
2024/01/24 05:37:46;;;;;;;6.10;3.28;;;0.60;99.90;;;;;;4997983;28;20124;-75
2024/01/24 05:40:12;;;;;;;7.50;3.60;;;0.60;99.90;;;;;;5015568;28;20029;-75
2024/01/24 05:42:38;;;;;;;6.10;3.30;;;0.60;99.90;;;;;;4996777;28;20074;-75
2024/01/24 05:45:05;;;;;;;5.75;3.17;;;1.10;99.90;;;;;;4996939;28;20440;-76
2024/01/24 05:47:31;;;;;;;5.20;2.90;;;0.60;99.90;;;;;;5014407;28;20089;-76
2024/01/24 05:49:58;;;;;;;4.05;3.15;;;0.60;99.90;;;;;;5014162;28;20054;-76
2024/01/24 05:52:23;;;;;;;6.78;3.15;;;0.70;99.90;;;;;;4996772;28;20029;-76
2024/01/24 05:54:49;;;;;;;7.38;3.45;;;0.60;99.90;;;;;;5014382;28;20030;-76
2024/01/24 05:57:15;;;;;;;3.88;2.70;;;0.90;99.90;;;;;;5014323;28;20077;-76
2024/01/24 05:59:40;;;;;;;8.90;3.70;;;0.40;99.90;;;;;;4996491;28;20125;-76
2024/01/24 06:02:06;;;;;;;6.10;2.10;;;0.50;99.90;;;;;;4996782;28;20038;-76
2024/01/24 06:04:31;;;;;;;6.28;2.30;;;0.40;99.90;;;;;;4996536;28;20037;-76
2024/01/24 06:07:00;;;;;;;6.55;2.88;;;0.30;99.90;;;;;;4996568;28;20396;-76
2024/01/24 06:09:30;;;;;;;10.95;3.75;;;0.30;99.90;;;;;;5013819;28;20014;-76
2024/01/24 06:11:55;;;;;;;6.28;3.35;;;0.30;99.90;;;;;;4996498;28;20033;-75
2024/01/24 06:14:21;;;;;;;8.95;3.75;;;0.30;99.90;;;;;;5013924;28;20157;-76
2024/01/24 06:16:47;;;;;;;6.13;2.80;;;0.50;99.90;;;;;;5013961;28;20022;-76
2024/01/24 06:19:12;;;;;;;10.10;2.88;;;0.90;99.90;;;;;;5013717;28;20036;-76
2024/01/24 06:21:38;;;;;;;7.30;3.40;;;0.50;99.90;;;;;;4996353;28;20026;-76
2024/01/24 06:24:07;;;;;;;4.68;2.60;;;0.20;99.90;;;;;;5013568;28;20464;-76
2024/01/24 06:26:33;;;;;;;7.82;4.18;;;0.30;99.90;;;;;;5013715;28;20028;-76
2024/01/24 06:28:58;;;;;;;8.43;4.05;;;0.30;99.90;;;;;;5013501;28;20022;-76
2024/01/24 06:31:24;;;;;;;4.57;3.22;;;0.30;99.90;;;;;;5013693;28;20480;-76
2024/01/24 06:33:50;;;;;;;5.72;2.88;;;0.40;99.90;;;;;;5013734;28;20424;-76
2024/01/24 06:36:16;;;;;;;5.80;3.38;;;1.00;99.90;;;;;;4996051;28;20108;-76
2024/01/24 06:38:42;;;;;;;6.65;3.47;;;0.40;99.90;;;;;;4995271;28;20080;-76
2024/01/24 06:41:07;;;;;;;11.80;4.22;;;0.90;99.90;;;;;;5013492;28;20026;-76
2024/01/24 06:43:35;;;;;;;6.90;3.00;;;0.50;99.90;;;;;;5013376;28;20500;-76
2024/01/24 06:46:02;;;;;;;4.07;2.92;;;0.60;99.90;;;;;;4995919;28;20032;-76
2024/01/24 06:48:28;;;;;;;8.27;3.25;;;0.50;99.90;;;;;;5013143;28;20022;-75
2024/01/24 06:50:54;;;;;;;5.55;3.22;;;0.60;99.90;;;;;;5013374;28;20547;-76
2024/01/24 06:53:20;;;;;;;4.72;3.03;;;0.60;99.90;;;;;;4995712;28;20050;-76
2024/01/24 06:55:46;;;;;;;7.00;3.22;;;0.60;99.90;;;;;;5013323;28;20101;-76
2024/01/24 06:58:12;;;;;;;6.95;3.00;;;0.60;99.90;;;;;;4996082;28;20121;-80
2024/01/24 07:00:38;;;;;;;5.72;3.40;;;1.00;99.90;;;;;;4995641;28;20026;-76
2024/01/24 07:03:04;;;;;;;6.15;3.42;;;0.60;99.90;;;;;;4995451;28;20369;-76
2024/01/24 07:05:29;;;;;;;5.88;2.97;;;0.60;99.90;;;;;;4995466;28;20025;-76
2024/01/24 07:07:57;;;;;;;4.75;2.95;;;0.70;99.90;;;;;;4995317;28;20440;-75
2024/01/24 07:10:22;;;;;;;7.38;3.17;;;0.70;99.90;;;;;;4995164;28;20496;-76
2024/01/24 07:12:48;;;;;;;6.40;3.15;;;0.70;99.90;;;;;;5012967;28;20032;-76
2024/01/24 07:15:15;;;;;;;7.90;3.40;;;1.40;99.90;;;;;;4994678;28;20402;-76
2024/01/24 07:17:41;;;;;;;15.48;4.32;;;0.80;99.90;;;;;;5012853;28;20026;-76
2024/01/24 07:20:07;;;;;;;7.45;4.75;;;0.90;99.90;;;;;;5012576;28;20064;-76
2024/01/24 07:22:33;;;;;;;10.30;5.43;;;0.90;99.90;;;;;;4995067;28;20030;-76
2024/01/24 07:24:59;;;;;;;12.10;4.30;;;1.10;99.90;;;;;;4994976;28;20401;-76
2024/01/24 07:27:24;;;;;;;10.13;4.22;;;1.10;99.90;;;;;;4996110;28;20628;-77
2024/01/24 07:29:50;;;;;;;14.52;6.32;;;1.80;99.90;;;;;;5012556;28;20025;-76
2024/01/24 07:32:15;;;;;;;12.98;6.18;;;1.50;99.90;;;;;;5012492;28;20100;-76
2024/01/24 07:34:41;;;;;;;12.35;5.65;;;1.80;99.90;;;;;;4994943;28;20246;-76
2024/01/24 07:37:10;;;;;;;12.05;5.55;;;1.40;99.90;;;;;;5012221;28;20026;-76
2024/01/24 07:39:35;;;;;;;11.63;6.32;;;1.30;99.90;;;;;;5012230;28;20026;-76
2024/01/24 07:42:01;;;;;;;15.05;6.03;;;1.20;99.90;;;;;;5012367;28;20646;-76
2024/01/24 07:44:27;;;;;;;14.10;7.15;;;1.20;99.90;;;;;;4996553;28;20026;-77
2024/01/24 07:46:53;;;;;;;16.45;7.38;;;1.30;99.90;;;;;;5015556;28;20535;-77
2024/01/24 07:49:18;;;;;;;10.88;6.00;;;1.40;99.90;;;;;;5012263;28;20022;-76
2024/01/24 07:51:46;;;;;;;9.60;5.55;;;1.20;99.90;;;;;;5011321;28;20057;-74
2024/01/24 07:54:12;;;;;;;11.75;5.63;;;3.60;99.90;;;;;;5012039;28;20433;-75
2024/01/24 07:56:38;;;;;;;9.95;4.82;;;3.10;99.90;;;;;;5012235;28;20029;-75
2024/01/24 07:59:05;;;;;;;8.00;4.18;;;2.80;99.90;;;;;;5011957;28;20440;-75
2024/01/24 08:01:31;;;;;;;16.90;7.43;;;2.50;99.90;;;;;;4994329;28;20126;-75
2024/01/24 08:03:58;;;;;;;12.23;5.45;;;2.40;99.90;;;;;;5011960;28;20026;-74
2024/01/24 08:06:24;;;;;;;14.40;6.32;;;2.20;99.90;;;;;;4994487;28;20018;-74
2024/01/24 08:08:50;;;;;;;19.95;10.23;;;2.10;99.90;;;;;;5011778;28;20057;-74
2024/01/24 08:11:16;;;;;;;12.85;6.38;;;2.10;99.90;;;;;;4994513;28;20021;-74
2024/01/24 08:13:42;;;;;;;9.90;6.43;;;2.00;99.90;;;;;;4994504;28;20121;-75
2024/01/24 08:16:08;;;;;;;8.68;3.95;;;2.30;99.90;;;;;;5011942;28;20058;-75
2024/01/24 08:18:33;;;;;;;10.38;4.07;;;2.20;99.90;;;;;;4994040;28;20117;-75
2024/01/24 08:20:59;;;;;;;10.63;4.18;;;2.10;99.90;;;;;;4994417;28;20667;-75
2024/01/24 08:23:25;;;;;;;6.13;3.42;;;2.10;99.90;;;;;;5011985;28;20453;-75
2024/01/24 08:25:51;;;;;;;7.15;3.38;;;2.10;99.90;;;;;;5011891;28;20101;-76
2024/01/24 08:28:16;;;;;;;7.95;3.80;;;2.10;99.90;;;;;;5011918;28;20052;-75
2024/01/24 08:30:42;;;;;;;17.88;5.50;;;2.20;99.90;;;;;;5011650;28;20030;-75
2024/01/24 08:33:08;;;;;;;25.45;5.75;;;2.10;99.90;;;;;;5011761;28;20025;-75
2024/01/24 08:35:36;;;;;;;10.48;5.75;;;2.10;99.90;;;;;;4994293;28;20029;-75
2024/01/24 08:38:02;;;;;;;14.93;5.22;;;3.00;99.90;;;;;;5011731;28;20057;-76
2024/01/24 08:40:28;;;;;;;11.32;4.80;;;2.70;99.90;;;;;;5011628;28;20033;-75
2024/01/24 08:42:54;;;;;;;13.65;6.35;;;2.70;99.90;;;;;;5011635;28;20025;-76
2024/01/24 08:45:20;;;;;;;27.85;7.88;;;2.50;99.90;;;;;;5011617;28;20022;-76
2024/01/24 08:47:46;;;;;;;19.00;7.22;;;2.60;99.90;;;;;;5011732;28;20419;-75
2024/01/24 08:50:12;;;;;;;11.65;5.30;;;2.50;99.90;;;;;;5011565;28;20018;-76
2024/01/24 08:52:38;;;;;;;5.90;3.10;;;2.50;99.90;;;;;;4994151;28;20122;-75
2024/01/24 08:55:08;;;;;;;6.38;3.20;;;2.60;99.90;;;;;;5011623;28;20492;-75
2024/01/24 08:57:33;;;;;;;8.05;2.63;;;2.50;99.90;;;;;;4993921;28;20026;-76
2024/01/24 08:59:59;;;;;;;4.85;2.90;;;2.50;99.90;;;;;;4993743;28;20025;-76
2024/01/24 09:02:26;;;;;;;4.78;3.40;;;2.60;99.90;;;;;;4995492;28;20030;-76
2024/01/24 09:04:52;;;;;;;5.72;3.28;;;2.70;99.90;;;;;;4997629;28;20029;-76
2024/01/24 09:07:22;;;;;;;6.32;3.05;;;2.80;99.90;;;;;;5015197;28;20448;-76
2024/01/24 09:09:49;;;;;;;4.90;3.47;;;2.80;99.90;;;;;;5015039;28;20504;-76
2024/01/24 09:12:15;;;;;;;9.20;4.60;;;2.80;99.90;;;;;;5015054;28;20109;-75
2024/01/24 09:14:41;;;;;;;7.45;4.45;;;2.80;99.90;;;;;;5015008;28;20471;-76
2024/01/24 09:17:09;;;;;;;10.98;4.25;;;2.80;99.90;;;;;;5014938;28;20106;-76
2024/01/24 09:19:35;;;;;;;6.97;3.85;;;2.70;99.90;;;;;;4997108;28;20026;-76
2024/01/24 09:22:01;;;;;;;10.07;4.10;;;2.60;99.90;;;;;;4997314;28;20404;-76
2024/01/24 09:24:27;;;;;;;8.73;4.93;;;2.70;99.90;;;;;;5040566;23;20053;-78
2024/01/24 09:26:52;;;;;;;9.18;4.95;;;2.80;99.90;;;;;;5024548;28;20021;-79
2024/01/24 09:29:18;;;;;;;13.85;7.55;;;2.70;99.90;;;;;;5005912;28;20078;-79
2024/01/24 09:31:45;;;;;;;8.82;5.00;;;2.70;99.90;;;;;;5021963;28;20022;-77
2024/01/24 09:34:12;;;;;;;21.63;8.55;;;2.80;99.90;;;;;;5019561;28;20503;-76
2024/01/24 09:36:37;;;;;;;10.63;6.05;;;2.90;99.90;;;;;;5004210;28;20030;-78
2024/01/24 09:39:03;;;;;;;6.97;4.28;;;3.00;99.90;;;;;;5020389;28;20165;-78
2024/01/24 09:41:34;;;;;;;6.88;4.70;;;3.10;99.90;;;;;;5005904;28;20586;-79
2024/01/24 09:44:05;;;;;;;9.40;5.72;;;3.40;99.90;;;;;;5006050;28;20029;-77
2024/01/24 09:46:34;;;;;;;10.88;5.65;;;3.50;99.90;;;;;;5023125;28;20420;-78
2024/01/24 09:49:01;;;;;;;6.38;3.85;;;3.50;99.90;;;;;;5005013;28;20033;-78
2024/01/24 09:51:30;;;;;;;8.85;5.00;;;3.50;99.90;;;;;;5022383;28;20025;-77
2024/01/24 09:54:00;;;;;;;10.68;4.90;;;3.60;99.90;;;;;;5021956;28;20026;-78
2024/01/24 09:56:26;;;;;;;5.70;3.72;;;3.60;99.90;;;;;;5022638;28;20025;-77
2024/01/24 09:58:52;;;;;;;6.70;4.20;;;3.60;99.90;;;;;;5023474;28;20034;-77
2024/01/24 10:01:19;;;;;;;8.95;4.10;;;3.70;99.90;;;;;;5024176;28;20030;-77
2024/01/24 10:03:46;;;;;;;8.02;4.70;;;3.70;99.90;;;;;;5023155;28;20022;-78
2024/01/24 10:06:14;;;;;;;5.68;3.83;;;3.90;99.90;;;;;;5004639;28;20076;-77
2024/01/24 10:08:39;;;;;;;10.65;5.65;;;3.90;99.90;;;;;;5022914;28;20037;-76
2024/01/24 10:11:06;;;;;;;6.60;4.60;;;3.90;99.90;;;;;;5005716;28;20045;-78
2024/01/24 10:13:31;;;;;;;18.10;7.65;;;4.10;99.90;;;;;;5022492;28;20026;-77
2024/01/24 10:15:59;;;;;;;8.13;4.28;;;4.10;99.90;;;;;;5021509;28;20033;-79
2024/01/24 10:18:25;;;;;;;9.63;4.47;;;4.30;99.90;;;;;;5003767;28;20555;-76
2024/01/24 10:20:51;;;;;;;7.38;3.53;;;4.40;99.90;;;;;;5004126;28;20018;-78
2024/01/24 10:23:16;;;;;;;4.45;3.53;;;4.50;99.90;;;;;;5019299;28;20056;-77
2024/01/24 10:25:42;;;;;;;5.13;2.65;;;4.60;99.90;;;;;;5000477;28;20496;-76
2024/01/24 10:28:14;;;;;;;7.20;3.47;;;4.70;99.90;;;;;;5000400;28;20022;-76
2024/01/24 10:30:41;;;;;;;6.47;3.67;;;4.80;99.90;;;;;;4999888;28;20022;-76
2024/01/24 10:33:12;;;;;;;5.82;3.20;;;4.80;99.90;;;;;;5000619;28;20362;-77
2024/01/24 10:35:38;;;;;;;4.68;2.85;;;4.90;99.90;;;;;;5000678;28;20117;-78
2024/01/24 10:38:05;;;;;;;5.63;3.17;;;4.90;99.90;;;;;;5001147;28;20041;-77
2024/01/24 10:40:31;;;;;;;8.57;3.60;;;5.00;99.90;;;;;;5018844;28;20022;-77
2024/01/24 10:43:08;;;;;;;7.20;3.47;;;5.00;99.90;;;;;;4999775;28;20033;-77
2024/01/24 10:45:36;;;;;;;7.78;3.42;;;5.00;99.90;;;;;;5000157;28;20026;-77
2024/01/24 10:48:03;;;;;;;5.55;3.33;;;5.20;99.90;;;;;;5000777;28;20369;-77
2024/01/24 10:50:30;;;;;;;6.57;2.75;;;5.40;99.90;;;;;;4998426;28;20026;-76
2024/01/24 10:52:57;;;;;;;7.57;3.40;;;5.30;99.90;;;;;;4998119;28;20025;-78
2024/01/24 10:55:24;;;;;;;5.95;3.60;;;5.50;99.90;;;;;;5000093;28;20393;-78
2024/01/24 10:57:51;;;;;;;8.55;5.35;;;5.60;99.90;;;;;;5001014;28;20161;-78
2024/01/24 11:00:19;;;;;;;6.38;4.07;;;5.60;99.90;;;;;;5001049;28;20041;-78
2024/01/24 11:02:44;;;;;;;11.52;4.38;;;5.70;99.90;;;;;;5000938;28;20033;-75
2024/01/24 11:05:30;;;;;;;6.05;3.50;;;5.70;99.90;;;;;;5000704;28;20121;-77
2024/01/24 11:08:14;;;;;;;6.53;3.70;;;5.80;99.90;;;;;;5000802;28;20030;-77
2024/01/24 11:10:42;;;;;;;11.43;4.57;;;6.00;99.90;;;;;;5018694;28;20045;-77
2024/01/24 11:13:11;;;;;;;8.27;3.83;;;6.20;99.90;;;;;;5018674;28;20025;-78
2024/01/24 11:15:36;;;;;;;5.35;2.92;;;6.10;99.90;;;;;;5018778;28;20030;-76
2024/01/24 11:18:21;;;;;;;5.50;3.85;;;6.10;99.90;;;;;;5001485;28;20132;-79
2024/01/24 11:20:48;;;;;;;5.05;3.55;;;6.10;99.90;;;;;;5018524;28;20121;-77
2024/01/24 11:23:41;;;;;;;6.97;3.38;;;6.10;99.90;;;;;;5017430;28;20034;-77
2024/01/24 11:26:30;;;;;;;7.30;4.32;;;6.10;99.90;;;;;;5017307;28;20452;-78
2024/01/24 11:29:06;;;;;;;5.20;3.38;;;6.00;99.90;;;;;;4990511;28;20033;-77
2024/01/24 11:31:43;;;;;;;3.83;2.97;;;6.00;99.90;;;;;;5019021;28;20014;-77
2024/01/24 11:34:13;;;;;;;8.50;3.00;;;5.80;99.90;;;;;;5000762;28;20119;-77
2024/01/24 11:36:50;;;;;;;5.25;3.22;;;5.70;99.90;;;;;;5001404;28;20026;-77
2024/01/24 11:39:39;;;;;;;8.27;3.70;;;5.60;99.90;;;;;;5017491;28;20025;-77
2024/01/24 11:42:23;;;;;;;5.93;3.20;;;5.60;99.90;;;;;;5017182;28;20046;-78
2024/01/24 11:44:49;;;;;;;5.93;3.35;;;5.60;99.90;;;;;;5001421;28;20022;-77
2024/01/24 11:47:15;;;;;;;4.03;3.03;;;5.50;99.90;;;;;;5017178;28;20056;-79
2024/01/24 11:49:40;;;;;;;10.05;3.22;;;5.50;99.90;;;;;;4998269;28;20563;-78
2024/01/24 11:52:06;;;;;;;6.95;3.33;;;5.50;99.90;;;;;;5018764;28;20433;-78
2024/01/24 11:54:32;;;;;;;6.05;2.78;;;5.40;99.90;;;;;;5000981;28;20484;-78
2024/01/24 11:56:58;;;;;;;3.35;2.80;;;5.40;99.90;;;;;;5018326;28;20030;-77
2024/01/24 11:59:24;;;;;;;5.97;3.90;;;5.30;99.90;;;;;;5018761;28;20026;-77
2024/01/24 12:01:49;;;;;;;7.10;5.45;;;5.40;99.90;;;;;;5019799;28;20034;-77
2024/01/24 12:04:15;;;;;;;10.93;6.50;;;5.30;99.90;;;;;;5000296;28;20026;-76
2024/01/24 12:06:41;;;;;;;9.73;6.05;;;5.40;99.90;;;;;;5013119;28;20053;-76
2024/01/24 12:09:09;;;;;;;10.70;6.18;;;6.50;99.90;;;;;;4995172;28;20026;-76
2024/01/24 12:11:35;;;;;;;14.77;6.55;;;7.00;99.90;;;;;;5012784;28;20022;-76
2024/01/24 12:14:01;;;;;;;10.45;5.38;;;7.30;99.90;;;;;;4996861;28;20461;-77
2024/01/24 12:16:28;;;;;;;6.20;3.63;;;6.90;99.90;;;;;;5017740;28;20058;-78
2024/01/24 12:18:54;;;;;;;9.10;5.82;;;6.70;99.90;;;;;;5017461;28;20101;-78
2024/01/24 12:21:21;;;;;;;11.05;5.95;;;6.30;99.90;;;;;;5001273;28;20100;-77
2024/01/24 12:23:47;;;;;;;25.13;10.60;;;6.10;99.90;;;;;;5000151;28;20037;-78
2024/01/24 12:26:15;;;;;;;19.23;10.20;;;5.80;99.90;;;;;;5001893;28;20439;-78
2024/01/24 12:28:40;;;;;;;12.27;7.78;;;5.70;99.90;;;;;;5018614;28;20026;-77
2024/01/24 12:31:07;;;;;;;9.98;6.40;;;5.60;99.90;;;;;;4999814;28;20033;-78
2024/01/24 12:33:33;;;;;;;10.75;4.50;;;5.50;99.90;;;;;;5000347;28;20489;-78
2024/01/24 12:36:05;;;;;;;7.97;4.72;;;5.50;99.90;;;;;;5018772;28;20076;-78
2024/01/24 12:38:34;;;;;;;12.68;5.28;;;5.40;99.90;;;;;;5004523;28;20018;-79
2024/01/24 12:41:00;;;;;;;8.93;4.72;;;5.30;99.90;;;;;;5022780;28;20030;-77
2024/01/24 12:43:26;;;;;;;8.73;5.43;;;5.30;99.90;;;;;;5022156;28;20029;-79
2024/01/24 12:45:52;;;;;;;12.45;7.07;;;5.30;99.90;;;;;;5022308;28;20568;-78
2024/01/24 12:48:18;;;;;;;10.05;5.93;;;5.30;99.90;;;;;;5005195;28;20111;-78
2024/01/24 12:50:43;;;;;;;8.05;4.43;;;5.30;99.90;;;;;;5022865;28;20022;-79